Time;durP1;ratioP1;P1;durP2;ratioP2;P2;SDS_P1;SDS_P2;PMS_P1;PMS_P2;Temp;Humidity;BMP_temperature;BMP_pressure;BME280_temperature;BME280_humidity;BME280_pressure;Samples;Min_cycle;Max_cycle;Signal;HPM_P1;HPM_P2
2024/02/04 00:01:34;;;;;;;6.65;3.80;;;;;;;8.14;55.81;95008.69;4175792;28;20049;-66
2024/02/04 00:03:36;;;;;;;4.95;3.55;;;;;;;8.12;55.26;95021.03;4176999;28;20060;-69
2024/02/04 00:05:38;;;;;;;5.90;3.67;;;;;;;8.09;55.93;95005.66;4153666;28;20052;-70
2024/02/04 00:07:40;;;;;;;6.97;4.00;;;;;;;8.07;56.08;95010.19;4161406;28;20468;-69
2024/02/04 00:09:43;;;;;;;5.68;3.95;;;;;;;8.03;56.47;94998.38;4162913;28;20108;-67
2024/02/04 00:11:45;;;;;;;5.72;4.10;;;;;;;8.11;56.40;95010.72;4180052;28;20068;-70
2024/02/04 00:13:47;;;;;;;5.50;4.25;;;;;;;8.12;56.27;95012.38;4173685;28;20044;-70
2024/02/04 00:15:49;;;;;;;6.55;4.15;;;;;;;8.10;55.83;95014.31;4159470;28;20160;-70
2024/02/04 00:17:51;;;;;;;7.15;4.18;;;;;;;8.07;56.38;95010.19;4161102;28;20571;-67
2024/02/04 00:19:53;;;;;;;6.55;4.18;;;;;;;8.06;56.80;95011.13;4161120;28;20280;-68
2024/02/04 00:21:55;;;;;;;7.35;4.40;;;;;;;8.00;56.31;95016.91;4145486;28;20097;-68
2024/02/04 00:23:56;;;;;;;6.22;4.30;;;;;;;8.06;56.88;95015.53;4175629;28;20104;-68
2024/02/04 00:25:58;;;;;;;6.10;4.28;;;;;;;7.97;56.82;95010.16;4157878;28;20423;-70
2024/02/04 00:28:00;;;;;;;7.93;4.97;;;;;;;8.02;57.14;95009.75;4176020;28;20048;-66
2024/02/04 00:30:02;;;;;;;6.90;3.85;;;;;;;8.04;56.77;95005.22;4159578;28;20077;-68
2024/02/04 00:32:04;;;;;;;5.93;3.97;;;;;;;8.04;56.95;95005.22;4163258;28;20516;-70
2024/02/04 00:34:27;;;;;;;6.85;4.30;;;;;;;8.00;56.84;95009.91;4165865;28;20052;-68
2024/02/04 00:36:29;;;;;;;7.32;4.30;;;;;;;7.95;57.14;95003.44;4163862;28;20049;-69
2024/02/04 00:38:31;;;;;;;6.32;4.15;;;;;;;7.94;57.37;95002.63;4154178;28;20380;-69
2024/02/04 00:40:33;;;;;;;6.28;3.92;;;;;;;7.95;57.22;95011.28;4178102;28;20106;-69
2024/02/04 00:42:39;;;;;;;6.55;4.25;;;;;;;7.92;57.18;94995.91;4178975;28;20080;-66
2024/02/04 00:44:41;;;;;;;6.22;4.05;;;;;;;7.99;57.17;95000.44;4159247;28;20108;-68
2024/02/04 00:46:43;;;;;;;5.80;4.50;;;;;;;8.01;57.39;94995.06;4153760;28;20046;-69
2024/02/04 00:48:45;;;;;;;5.00;3.78;;;;;;;8.05;57.03;94991.25;4163267;28;20112;-69
2024/02/04 00:50:47;;;;;;;5.47;3.88;;;;;;;7.98;57.83;95006.63;4147694;28;20053;-68
2024/02/04 00:52:49;;;;;;;5.53;3.83;;;;;;;8.09;56.92;95003.06;4178606;28;20048;-67
2024/02/04 00:54:50;;;;;;;5.47;4.18;;;;;;;8.12;56.94;94994.13;4183924;28;20056;-67
2024/02/04 00:56:52;;;;;;;6.10;3.97;;;;;;;8.08;57.60;95000.56;4176717;28;20056;-69
2024/02/04 00:58:54;;;;;;;5.05;3.92;;;;;;;8.11;57.41;94987.25;4175237;28;20045;-68
2024/02/04 01:00:56;;;;;;;6.72;4.30;;;;;;;8.09;57.59;94997.03;4182138;28;20053;-69
2024/02/04 01:02:58;;;;;;;6.07;4.53;;;;;;;8.16;57.57;95003.34;4183060;28;20136;-68
2024/02/04 01:05:00;;;;;;;5.20;4.05;;;;;;;8.21;57.00;94986.28;4178848;28;20152;-69
2024/02/04 01:07:02;;;;;;;7.47;3.97;;;;;;;8.16;57.83;94995.50;4181746;28;20048;-69
2024/02/04 01:09:04;;;;;;;6.15;4.15;;;;;;;8.19;57.17;94990.84;4180471;28;20072;-68
2024/02/04 01:11:06;;;;;;;5.93;4.07;;;;;;;8.14;58.39;95006.06;4172668;28;20088;-69
2024/02/04 01:13:07;;;;;;;5.35;3.42;;;;;;;8.16;58.38;94993.72;4182818;28;20053;-67
2024/02/04 01:15:09;;;;;;;6.38;3.80;;;;;;;8.15;58.33;94992.06;4161417;28;20053;-70
2024/02/04 01:17:11;;;;;;;5.05;3.67;;;;;;;8.19;58.17;94988.22;4158504;28;20392;-70
2024/02/04 01:19:13;;;;;;;5.00;3.38;;;;;;;8.24;58.10;94989.56;4176996;28;20053;-68
2024/02/04 01:21:15;;;;;;;5.65;4.07;;;;;;;8.23;57.93;94991.38;4162229;28;20096;-69
2024/02/04 01:23:18;;;;;;;5.32;3.95;;;;;;;8.28;58.32;94993.56;4180241;28;20052;-68
2024/02/04 01:25:20;;;;;;;5.17;3.63;;;;;;;8.25;58.99;94992.06;4152756;28;20092;-66
2024/02/04 01:27:22;;;;;;;6.13;3.75;;;;;;;8.24;58.35;94985.22;4161419;28;20212;-69
2024/02/04 01:29:24;;;;;;;5.25;3.70;;;;;;;8.27;58.42;94986.72;4181262;28;20072;-69
2024/02/04 01:31:26;;;;;;;6.47;3.92;;;;;;;8.24;58.84;94981.75;4161421;28;20057;-69
2024/02/04 01:33:28;;;;;;;5.28;4.10;;;;;;;8.19;58.58;94972.56;4186960;28;20041;-69
2024/02/04 01:35:30;;;;;;;6.65;3.90;;;;;;;8.25;59.05;94979.00;4187976;28;20060;-69
2024/02/04 01:37:32;;;;;;;6.95;3.80;;;;;;;8.21;58.94;94967.19;4181109;28;20131;-67
2024/02/04 01:39:33;;;;;;;6.63;3.63;;;;;;;8.21;58.49;94972.41;4188930;28;20052;-68
2024/02/04 01:41:36;;;;;;;4.93;3.78;;;;;;;8.24;59.03;94974.78;4163837;28;20460;-67
2024/02/04 01:43:38;;;;;;;6.30;3.55;;;;;;;8.24;58.70;94973.91;4189160;28;20454;-69
2024/02/04 01:45:39;;;;;;;5.63;3.80;;;;;;;8.20;58.45;94969.00;4177587;28;20128;-67
2024/02/04 01:47:41;;;;;;;5.30;3.40;;;;;;;8.20;59.25;94968.19;4175796;28;20055;-67
2024/02/04 01:49:43;;;;;;;7.80;3.70;;;;;;;8.20;59.42;94962.94;4180834;28;20048;-67
2024/02/04 01:51:46;;;;;;;7.25;3.95;;;;;;;8.23;59.20;94973.09;4159672;28;20080;-68
2024/02/04 01:53:49;;;;;;;6.72;3.30;;;;;;;8.27;59.03;94958.81;4184338;28;20092;-69
2024/02/04 01:55:51;;;;;;;5.20;4.03;;;;;;;8.32;59.53;94971.44;4170492;28;20488;-69
2024/02/04 01:57:53;;;;;;;4.85;3.33;;;;;;;8.33;59.34;94960.88;4179181;28;20321;-67
2024/02/04 01:59:56;;;;;;;6.80;3.53;;;;;;;8.31;59.49;94961.97;4177339;28;20049;-70
2024/02/04 02:02:02;;;;;;;6.22;3.60;;;;;;;8.25;60.05;94960.75;4151546;28;20053;-68
2024/02/04 02:04:05;;;;;;;4.60;3.10;;;;;;;8.25;59.58;94957.31;4180140;28;20154;-68
2024/02/04 02:06:07;;;;;;;6.07;3.67;;;;;;;8.30;59.51;94969.00;4183181;28;20038;-67
2024/02/04 02:08:11;;;;;;;5.13;3.58;;;;;;;8.25;59.82;94959.94;4169940;28;20143;-69
2024/02/04 02:10:13;;;;;;;6.97;3.88;;;;;;;8.26;60.14;94957.19;4161214;28;20047;-70
2024/02/04 02:12:24;;;;;;;6.03;3.60;;;;;;;8.31;59.43;94970.63;4173187;28;20464;-67
2024/02/04 02:14:28;;;;;;;8.18;3.88;;;;;;;8.32;59.55;94958.41;4160739;28;20073;-68
2024/02/04 02:16:32;;;;;;;7.50;3.72;;;;;;;8.31;59.48;94980.25;4140307;28;20129;-67
2024/02/04 02:18:39;;;;;;;5.70;3.72;;;;;;;8.31;59.74;94978.47;4176351;28;20435;-68
2024/02/04 02:21:18;;;;;;;5.20;3.53;;;;;;;8.33;59.38;94958.28;4180081;28;20052;-68
2024/02/04 02:23:30;;;;;;;5.20;3.40;;;;;;;8.30;59.10;94957.72;4170443;28;20124;-68
2024/02/04 02:25:33;;;;;;;5.60;3.38;;;;;;;8.36;59.13;94942.31;4181385;28;20055;-68
2024/02/04 02:27:49;;;;;;;5.53;3.40;;;;;;;8.39;59.22;94944.66;4161020;28;20421;-69
2024/02/04 02:29:50;;;;;;;6.70;4.20;;;;;;;8.36;59.29;94947.53;4176367;28;20067;-68
2024/02/04 02:31:52;;;;;;;4.47;3.45;;;;;;;8.42;59.49;94950.59;4171035;28;20060;-69
2024/02/04 02:33:54;;;;;;;4.85;3.30;;;;;;;8.35;59.67;94950.31;4174397;28;20685;-69
2024/02/04 02:35:58;;;;;;;5.20;3.40;;;;;;;8.42;59.62;94943.59;4166590;28;20087;-69
2024/02/04 02:38:11;;;;;;;3.88;3.00;;;;;;;8.39;59.11;94944.66;4179215;28;20140;-69
2024/02/04 02:40:16;;;;;;;5.55;3.70;;;;;;;8.45;58.14;94939.88;4170485;28;20056;-69
2024/02/04 02:42:18;;;;;;;4.97;3.22;;;;;;;8.45;58.52;94943.28;4172628;28;20135;-69
2024/02/04 02:44:21;;;;;;;5.57;3.50;;;;;;;8.47;58.62;94946.59;4163146;28;20052;-69
2024/02/04 02:46:23;;;;;;;5.10;3.60;;;;;;;8.40;58.68;94956.78;4185289;28;20048;-66
2024/02/04 02:48:26;;;;;;;5.95;3.67;;;;;;;8.40;58.89;94950.69;4176892;28;20222;-67
2024/02/04 02:50:28;;;;;;;8.13;4.05;;;;;;;8.41;58.46;94949.78;4160130;28;20049;-69
2024/02/04 02:52:30;;;;;;;6.90;3.50;;;;;;;8.43;58.19;94939.19;4161012;28;20041;-69
2024/02/04 02:54:31;;;;;;;5.40;3.72;;;;;;;8.35;58.84;94934.66;4186013;28;20055;-68
2024/02/04 02:56:33;;;;;;;5.65;4.00;;;;;;;8.49;58.18;94931.59;4183379;28;20132;-67
2024/02/04 02:58:35;;;;;;;5.53;3.53;;;;;;;8.41;58.39;94928.91;4175828;28;20063;-68
2024/02/04 03:00:37;;;;;;;5.20;3.65;;;;;;;8.40;58.08;94940.25;4142999;28;20148;-68
2024/02/04 03:02:39;;;;;;;5.00;3.70;;;;;;;8.37;58.75;94937.94;4170665;28;20076;-69
2024/02/04 03:04:41;;;;;;;6.82;4.00;;;;;;;8.39;58.77;94938.63;4180029;28;20784;-67
2024/02/04 03:06:43;;;;;;;5.78;3.85;;;;;;;8.39;58.35;94942.06;4166575;28;20056;-70
2024/02/04 03:08:45;;;;;;;5.20;3.25;;;;;;;8.40;58.15;94932.44;4180183;28;20084;-68
2024/02/04 03:10:46;;;;;;;5.03;3.28;;;;;;;8.39;58.26;94938.63;4159549;28;20398;-71
2024/02/04 03:12:48;;;;;;;5.03;3.42;;;;;;;8.42;58.68;94929.72;4151642;28;20181;-68
2024/02/04 03:14:50;;;;;;;5.82;3.55;;;;;;;8.42;58.98;94917.47;4160723;28;20042;-68
2024/02/04 03:16:52;;;;;;;5.20;3.45;;;;;;;8.48;58.51;94919.53;4159583;28;20079;-69
2024/02/04 03:18:56;;;;;;;5.97;3.10;;;;;;;8.47;58.87;94923.09;4166290;28;20049;-68
2024/02/04 03:20:58;;;;;;;5.43;3.13;;;;;;;8.55;58.49;94912.78;4175750;28;20048;-68
2024/02/04 03:23:00;;;;;;;5.20;3.30;;;;;;;8.59;58.06;94903.69;4156506;28;20484;-68
2024/02/04 03:25:01;;;;;;;5.03;3.53;;;;;;;8.55;59.14;94904.13;4171213;28;20047;-69
2024/02/04 03:27:03;;;;;;;5.07;3.35;;;;;;;8.54;58.52;94918.97;4176425;28;20053;-68
2024/02/04 03:29:05;;;;;;;4.80;3.10;;;;;;;8.53;58.56;94916.50;4148112;28;20065;-69
2024/02/04 03:31:07;;;;;;;4.68;2.97;;;;;;;8.59;58.11;94926.38;4160908;28;20053;-67
2024/02/04 03:33:09;;;;;;;4.95;3.30;;;;;;;8.57;58.62;94918.69;4182171;28;20141;-69
2024/02/04 03:35:11;;;;;;;4.78;3.58;;;;;;;8.54;58.45;94915.50;4165668;28;20045;-69
2024/02/04 03:37:13;;;;;;;4.38;3.28;;;;;;;8.53;58.28;94911.28;4172714;28;20045;-70
2024/02/04 03:39:14;;;;;;;4.90;3.08;;;;;;;8.52;58.62;94907.03;4160598;28;20119;-69
2024/02/04 03:41:16;;;;;;;4.10;2.95;;;;;;;8.60;58.48;94910.59;4175526;28;20056;-69
2024/02/04 03:43:18;;;;;;;6.00;3.38;;;;;;;8.53;58.51;94904.25;4185763;28;20271;-69
2024/02/04 03:45:20;;;;;;;6.07;3.85;;;;;;;8.51;58.24;94887.91;4177244;28;20052;-68
2024/02/04 03:47:22;;;;;;;5.85;3.20;;;;;;;8.50;58.11;94888.88;4174406;28;20057;-68
2024/02/04 03:49:24;;;;;;;4.53;3.35;;;;;;;8.55;58.60;94899.72;4178019;28;20550;-70
2024/02/04 03:51:26;;;;;;;5.07;2.80;;;;;;;8.53;58.76;94916.50;4155671;28;20053;-68
2024/02/04 03:53:27;;;;;;;4.90;3.22;;;;;;;8.48;58.63;94903.88;4176975;28;20049;-69
2024/02/04 03:55:29;;;;;;;4.05;2.97;;;;;;;8.51;59.16;94890.53;4178106;28;20068;-70
2024/02/04 03:57:32;;;;;;;4.50;2.90;;;;;;;8.48;59.51;94903.06;4172632;28;20041;-68
2024/02/04 03:59:34;;;;;;;5.35;3.17;;;;;;;8.45;59.45;94898.91;4172543;28;20144;-68
2024/02/04 04:01:36;;;;;;;5.38;3.08;;;;;;;8.47;58.98;94906.59;4172180;28;20138;-69
2024/02/04 04:03:42;;;;;;;4.47;3.20;;;;;;;8.46;59.00;94921.47;4175591;28;20471;-68
2024/02/04 04:05:44;;;;;;;6.30;3.13;;;;;;;8.51;59.34;94915.81;4152949;28;20056;-68
2024/02/04 04:07:46;;;;;;;3.58;2.63;;;;;;;8.51;59.61;94913.19;4178372;28;20144;-70
2024/02/04 04:09:48;;;;;;;6.00;2.97;;;;;;;8.58;59.21;94911.66;4180145;28;20486;-69
2024/02/04 04:11:50;;;;;;;5.70;2.80;;;;;;;8.61;59.31;94912.22;4157043;28;20042;-70
2024/02/04 04:13:51;;;;;;;4.38;2.90;;;;;;;8.64;58.76;94913.72;4151831;28;20169;-68
2024/02/04 04:15:53;;;;;;;5.28;3.13;;;;;;;8.67;59.56;94913.44;4154494;28;20054;-69
2024/02/04 04:17:55;;;;;;;5.85;3.35;;;;;;;8.67;59.03;94896.94;4173927;28;20061;-68
2024/02/04 04:19:57;;;;;;;4.43;3.00;;;;;;;8.69;59.48;94895.00;4175247;28;20128;-70
2024/02/04 04:22:01;;;;;;;3.97;2.70;;;;;;;8.70;58.68;94891.44;4174413;28;20048;-70
2024/02/04 04:24:03;;;;;;;;;;;;;;;8.68;59.33;94885.53;4141093;28;20058;-69
2024/02/04 04:26:05;;;;;;;3.78;2.95;;;;;;;8.70;58.85;94897.47;4175241;28;20454;-67
2024/02/04 04:28:07;;;;;;;5.28;3.10;;;;;;;8.61;59.16;94909.59;4190264;28;20424;-69
2024/02/04 04:30:10;;;;;;;4.70;3.33;;;;;;;8.55;59.30;94918.00;4183004;28;20041;-71
2024/02/04 04:32:11;;;;;;;4.15;3.00;;;;;;;8.55;59.43;94922.41;4182989;28;20072;-68
2024/02/04 04:34:13;;;;;;;4.30;3.05;;;;;;;8.57;59.85;94913.47;4146891;28;20080;-68
2024/02/04 04:36:15;;;;;;;6.03;3.10;;;;;;;8.63;60.03;94919.09;4163439;28;20124;-69
2024/02/04 04:38:17;;;;;;;3.75;2.40;;;;;;;8.69;59.52;94915.91;4164753;28;20045;-67
2024/02/04 04:40:19;;;;;;;4.22;3.30;;;;;;;8.68;59.20;94906.44;4176768;28;20184;-68
2024/02/04 04:42:21;;;;;;;5.50;3.00;;;;;;;8.73;59.58;94912.88;4160323;28;20112;-69
2024/02/04 04:44:23;;;;;;;5.20;3.70;;;;;;;8.77;59.62;94901.16;4188496;28;20113;-70
2024/02/04 04:46:25;;;;;;;6.35;3.10;;;;;;;8.76;59.38;94909.16;4142630;28;20085;-68
2024/02/04 04:48:26;;;;;;;6.28;3.28;;;;;;;8.82;59.42;94901.56;4176171;28;20135;-69
2024/02/04 04:50:28;;;;;;;4.03;2.90;;;;;;;8.86;59.51;94906.50;4177096;28;20052;-69
2024/02/04 04:52:30;;;;;;;3.72;2.70;;;;;;;8.90;59.08;94905.25;4170049;28;20045;-68
2024/02/04 04:54:32;;;;;;;4.80;2.80;;;;;;;8.88;59.61;94902.75;4183060;28;20135;-68
2024/02/04 04:56:40;;;;;;;5.47;2.65;;;;;;;8.87;59.44;94911.59;4161726;28;20088;-68
2024/02/04 04:58:44;;;;;;;5.38;2.92;;;;;;;8.92;59.13;94906.75;4166265;28;20054;-69
2024/02/04 05:00:46;;;;;;;5.13;3.15;;;;;;;8.95;58.66;94916.91;4183322;28;20095;-71
2024/02/04 05:02:48;;;;;;;4.70;3.08;;;;;;;8.98;58.79;94927.06;4162322;28;20045;-70
2024/02/04 05:04:49;;;;;;;4.35;2.85;;;;;;;8.92;58.61;94903.31;4155861;28;20045;-69
2024/02/04 05:06:51;;;;;;;4.15;2.80;;;;;;;8.96;58.93;94897.66;4177269;28;20048;-70
2024/02/04 05:08:53;;;;;;;5.10;3.00;;;;;;;8.95;58.68;94893.41;4176972;28;20069;-69
2024/02/04 05:10:55;;;;;;;8.27;2.95;;;;;;;8.93;58.75;94897.94;4179369;28;20107;-70
2024/02/04 05:12:57;;;;;;;4.18;2.88;;;;;;;8.94;58.84;94899.59;4177810;28;20055;-70
2024/02/04 05:14:59;;;;;;;3.22;2.78;;;;;;;8.89;59.25;94890.53;4161301;28;20065;-69
2024/02/04 05:17:01;;;;;;;4.35;2.80;;;;;;;8.90;58.49;94894.78;4175991;28;20048;-70
2024/02/04 05:19:03;;;;;;;3.65;2.80;;;;;;;8.89;59.27;94901.00;4175747;28;20071;-67
2024/02/04 05:21:05;;;;;;;3.75;2.70;;;;;;;8.91;58.65;94894.66;4159377;28;20081;-70
2024/02/04 05:23:07;;;;;;;3.95;2.78;;;;;;;8.92;59.05;94906.75;4176479;28;20049;-69
2024/02/04 05:25:09;;;;;;;4.25;2.83;;;;;;;8.90;58.77;94916.50;4169599;28;20476;-70
2024/02/04 05:27:11;;;;;;;4.10;2.70;;;;;;;8.94;58.81;94904.00;4167564;28;20056;-69
2024/02/04 05:29:13;;;;;;;5.30;2.72;;;;;;;8.97;58.70;94925.44;4174506;28;20049;-69
2024/02/04 05:31:15;;;;;;;4.32;2.90;;;;;;;8.96;58.59;94918.56;4175446;28;20103;-70
2024/02/04 05:33:17;;;;;;;3.20;2.63;;;;;;;8.94;58.51;94910.03;4166258;28;20107;-70
2024/02/04 05:35:18;;;;;;;4.00;2.70;;;;;;;8.94;58.54;94917.06;4170595;28;20053;-68
2024/02/04 05:37:21;;;;;;;4.55;3.03;;;;;;;8.95;58.30;94911.69;4182328;28;20051;-70
2024/02/04 05:39:24;;;;;;;8.15;3.53;;;;;;;8.94;58.44;94896.16;4179377;28;20060;-70
2024/02/04 05:41:26;;;;;;;5.20;3.10;;;;;;;8.93;58.28;94903.19;4168089;28;20072;-70
2024/02/04 05:43:27;;;;;;;4.25;3.10;;;;;;;8.90;57.36;94902.63;4176198;28;20053;-70
2024/02/04 05:45:29;;;;;;;4.63;3.35;;;;;;;8.85;57.59;94905.69;4173653;28;20056;-69
2024/02/04 05:47:31;;;;;;;4.95;3.10;;;;;;;8.89;57.91;94909.66;4185041;28;20048;-70
2024/02/04 05:49:33;;;;;;;4.95;3.08;;;;;;;8.94;57.51;94919.66;4184757;28;20063;-69
2024/02/04 05:51:41;;;;;;;6.45;3.30;;;;;;;8.97;57.46;94912.38;4172840;28;20053;-72
2024/02/04 05:53:43;;;;;;;4.63;3.35;;;;;;;9.02;57.33;94919.78;4157034;28;20057;-69
2024/02/04 05:55:46;;;;;;;4.70;2.90;;;;;;;9.06;57.25;94917.72;4169217;28;20056;-70
2024/02/04 05:57:48;;;;;;;5.33;3.17;;;;;;;9.00;57.05;94921.72;4194713;28;20052;-70
2024/02/04 05:59:52;;;;;;;3.85;2.90;;;;;;;9.00;57.20;94929.56;4183542;28;20056;-70
2024/02/04 06:01:54;;;;;;;5.32;2.90;;;;;;;8.96;57.61;94921.16;4174232;28;20128;-69
2024/02/04 06:03:56;;;;;;;5.72;3.08;;;;;;;9.01;57.17;94934.63;4161683;28;20049;-69
2024/02/04 06:05:58;;;;;;;5.80;2.90;;;;;;;9.09;57.20;94920.03;4180615;28;20053;-70
2024/02/04 06:07:59;;;;;;;4.95;3.05;;;;;;;9.12;57.26;94938.00;4158266;28;20141;-69
2024/02/04 06:10:03;;;;;;;5.70;3.15;;;;;;;9.05;56.73;94905.59;4179694;28;20673;-71
2024/02/04 06:12:06;;;;;;;3.70;3.08;;;;;;;9.05;56.74;94931.72;4160983;28;20128;-70
2024/02/04 06:14:08;;;;;;;4.95;3.22;;;;;;;9.08;57.16;94920.97;4174139;28;20594;-69
2024/02/04 06:16:11;;;;;;;5.07;3.33;;;;;;;9.12;57.54;94930.19;4176267;28;20053;-69
2024/02/04 06:18:13;;;;;;;;;;;;;;;9.05;57.14;94932.53;4160190;28;20041;-69
2024/02/04 06:20:15;;;;;;;5.63;3.53;;;;;;;9.08;57.75;94939.25;4171701;28;19928;-70
2024/02/04 06:22:17;;;;;;;5.93;3.30;;;;;;;9.05;57.26;94942.19;4176658;28;20052;-71
2024/02/04 06:24:20;;;;;;;5.07;3.33;;;;;;;9.05;57.47;94936.94;4177944;28;20053;-71
2024/02/04 06:26:22;;;;;;;4.63;3.23;;;;;;;9.07;56.78;94958.53;4160504;28;20420;-70
2024/02/04 06:28:23;;;;;;;4.97;3.30;;;;;;;9.05;57.13;94936.94;4173906;28;20049;-71
2024/02/04 06:30:25;;;;;;;4.82;3.05;;;;;;;9.05;57.42;94968.31;4178483;28;20052;-70
2024/02/04 06:32:27;;;;;;;4.65;3.45;;;;;;;9.12;57.04;94958.94;4179129;28;20049;-71
2024/02/04 06:34:29;;;;;;;4.72;3.13;;;;;;;9.09;57.26;94977.53;4172507;28;20136;-71
2024/02/04 06:36:31;;;;;;;4.03;3.22;;;;;;;8.99;57.54;94974.91;4167212;28;20496;-70
2024/02/04 06:38:33;;;;;;;5.60;3.55;;;;;;;9.06;57.78;94975.22;4178639;28;20045;-70
2024/02/04 06:40:35;;;;;;;6.15;3.22;;;;;;;9.09;57.04;94967.88;4178151;28;20059;-69
2024/02/04 06:42:36;;;;;;;5.07;3.53;;;;;;;9.16;57.20;94965.50;4190214;28;20056;-71
2024/02/04 06:44:38;;;;;;;4.10;3.17;;;;;;;9.16;57.36;94970.75;4190047;28;20084;-70
2024/02/04 06:46:40;;;;;;;3.97;3.13;;;;;;;9.13;56.87;94960.59;4182659;28;20045;-70
2024/02/04 06:48:42;;;;;;;4.82;3.60;;;;;;;9.09;57.48;94980.13;4187649;28;20084;-70
2024/02/04 06:50:45;;;;;;;5.07;3.60;;;;;;;9.15;57.88;94962.09;4171728;28;20160;-70
2024/02/04 06:52:47;;;;;;;5.78;3.90;;;;;;;9.05;57.86;94970.94;4171822;28;20444;-70
2024/02/04 06:54:50;;;;;;;5.80;3.50;;;;;;;9.09;57.90;94969.69;4177784;28;20045;-71
2024/02/04 06:56:55;;;;;;;4.43;3.20;;;;;;;9.13;57.11;94986.72;4173282;28;20086;-71
2024/02/04 06:58:56;;;;;;;4.65;3.25;;;;;;;9.19;57.42;94971.28;4160062;28;20512;-69
2024/02/04 07:00:58;;;;;;;7.22;3.28;;;;;;;9.22;57.44;94973.59;4156594;28;20057;-71
2024/02/04 07:03:00;;;;;;;4.40;3.17;;;;;;;9.31;56.61;94974.53;4172404;28;20053;-69
2024/02/04 07:05:03;;;;;;;4.75;3.60;;;;;;;9.21;56.98;94981.59;4164986;28;20053;-70
2024/02/04 07:07:05;;;;;;;5.93;3.17;;;;;;;9.26;56.74;94981.16;4190017;28;20049;-70
2024/02/04 07:09:07;;;;;;;4.65;3.28;;;;;;;9.33;57.19;94982.22;4163900;28;20168;-70
2024/02/04 07:11:09;;;;;;;5.40;3.13;;;;;;;9.32;57.20;94976.19;4144335;28;20428;-71
2024/02/04 07:13:12;;;;;;;5.07;3.15;;;;;;;9.31;57.22;94969.28;4178193;28;20049;-69
2024/02/04 07:15:14;;;;;;;7.68;3.63;;;;;;;9.29;57.26;94980.88;4158073;28;20049;-70
2024/02/04 07:17:16;;;;;;;5.07;3.15;;;;;;;9.31;57.17;94987.59;4187812;28;20052;-69
2024/02/04 07:19:18;;;;;;;3.60;2.90;;;;;;;9.23;57.60;94967.41;4166688;28;20053;-70
2024/02/04 07:21:19;;;;;;;4.45;3.00;;;;;;;9.29;57.34;94978.25;4177935;28;20133;-71
2024/02/04 07:23:21;;;;;;;4.05;2.88;;;;;;;9.29;57.26;94973.88;4161408;28;20132;-70
2024/02/04 07:25:23;;;;;;;5.82;3.13;;;;;;;9.31;57.16;94969.28;4160622;28;20040;-72
2024/02/04 07:27:25;;;;;;;6.97;3.33;;;;;;;9.43;56.76;94986.44;4176129;28;20063;-70
2024/02/04 07:29:27;;;;;;;6.25;3.05;;;;;;;9.50;57.07;94972.78;4179761;28;20468;-70
2024/02/04 07:31:29;;;;;;;6.40;3.38;;;;;;;9.52;56.57;94968.25;4160875;28;20069;-70
2024/02/04 07:33:31;;;;;;;6.85;3.25;;;;;;;9.45;56.43;94975.03;4187377;28;20098;-71
2024/02/04 07:35:34;;;;;;;3.97;2.97;;;;;;;9.39;56.84;94971.19;4178156;28;20041;-69
2024/02/04 07:37:35;;;;;;;4.03;2.92;;;;;;;9.34;56.64;94962.97;4178759;28;20664;-70
2024/02/04 07:39:37;;;;;;;7.43;3.45;;;;;;;9.37;56.53;94979.19;4179055;28;20058;-72
2024/02/04 07:41:39;;;;;;;5.97;3.00;;;;;;;9.32;56.37;94959.69;4185812;28;20052;-72
2024/02/04 07:43:41;;;;;;;6.95;3.28;;;;;;;9.31;56.46;94986.78;4131468;28;20047;-73
2024/02/04 07:45:43;;;;;;;5.78;2.97;;;;;;;9.27;56.60;94986.28;4178903;28;20124;-71
2024/02/04 07:47:45;;;;;;;8.27;3.30;;;;;;;9.30;56.26;94972.91;4157103;28;20477;-69
2024/02/04 07:49:48;;;;;;;3.85;2.92;;;;;;;9.37;56.46;94973.94;4172963;28;20080;-71
2024/02/04 07:51:49;;;;;;;6.72;3.10;;;;;;;9.35;56.73;94962.81;4161778;28;20408;-70
2024/02/04 07:53:51;;;;;;;8.48;3.30;;;;;;;9.33;56.04;94977.00;4170771;28;20144;-71
2024/02/04 07:55:53;;;;;;;4.55;2.80;;;;;;;9.57;55.67;94964.25;4164975;28;20124;-72
2024/02/04 07:57:55;;;;;;;4.82;3.28;;;;;;;9.67;55.29;94969.41;4183151;28;20045;-71
2024/02/04 07:59:57;;;;;;;3.55;2.63;;;;;;;9.69;55.25;94979.72;4180890;28;20302;-71
2024/02/04 08:02:02;;;;;;;4.93;3.13;;;;;;;9.61;55.50;94967.38;4182533;28;20053;-70
2024/02/04 08:04:06;;;;;;;6.43;2.70;;;;;;;9.69;55.05;94972.69;4184278;28;20075;-71
2024/02/04 08:06:08;;;;;;;3.80;2.72;;;;;;;9.69;54.75;94996.22;4187095;28;20052;-71
2024/02/04 08:08:10;;;;;;;5.78;2.88;;;;;;;9.72;54.65;94964.56;4170686;28;20136;-71
2024/02/04 08:10:12;;;;;;;5.78;2.85;;;;;;;9.66;55.14;94978.22;4164017;28;20076;-71
2024/02/04 08:12:14;;;;;;;4.20;2.55;;;;;;;9.75;54.55;94971.28;4174068;28;20049;-71
2024/02/04 08:14:17;;;;;;;3.63;2.45;;;;;;;9.86;54.76;94963.22;4174309;28;20053;-71
2024/02/04 08:16:20;;;;;;;5.40;2.60;;;;;;;9.99;53.96;94963.69;4150288;28;20143;-70
2024/02/04 08:18:22;;;;;;;6.32;3.17;;;;;;;10.00;53.66;94980.19;4171769;28;20044;-71
2024/02/04 08:20:24;;;;;;;4.25;2.83;;;;;;;10.20;53.37;94970.44;4173744;28;20056;-70
2024/02/04 08:22:26;;;;;;;4.05;2.10;;;;;;;10.35;53.06;94979.44;4175654;28;20054;-72
2024/02/04 08:24:29;;;;;;;5.90;2.38;;;;;;;10.27;53.26;94966.22;4175197;28;20503;-70
2024/02/04 08:26:31;;;;;;;5.32;2.78;;;;;;;10.39;52.89;94957.19;4174573;28;20048;-71
2024/02/04 08:28:33;;;;;;;4.75;2.80;;;;;;;10.53;52.42;94955.00;4160778;28;20731;-71
2024/02/04 08:30:35;;;;;;;10.40;3.10;;;;;;;10.51;52.29;94959.56;4184287;28;20490;-72
2024/02/04 08:32:37;;;;;;;5.18;2.80;;;;;;;10.47;52.41;94956.44;4185394;28;20541;-71
2024/02/04 08:34:39;;;;;;;5.47;3.28;;;;;;;10.23;53.14;94955.22;4181626;28;20058;-71
2024/02/04 08:36:41;;;;;;;4.50;2.10;;;;;;;10.20;52.82;94966.00;4180658;28;20483;-71
2024/02/04 08:38:42;;;;;;;3.78;2.20;;;;;;;10.12;52.81;94963.31;4157484;28;20092;-71
2024/02/04 08:40:44;;;;;;;3.30;1.98;;;;;;;10.18;52.63;94973.19;4182837;28;20504;-71
2024/02/04 08:42:46;;;;;;;4.93;2.00;;;;;;;10.21;52.77;94967.63;4164210;28;20439;-72
2024/02/04 08:44:48;;;;;;;2.88;1.80;;;;;;;10.21;52.49;94949.31;4181911;28;20055;-71
2024/02/04 08:46:50;;;;;;;5.07;2.15;;;;;;;10.19;52.92;94964.34;4184105;28;20164;-71
2024/02/04 08:48:52;;;;;;;3.47;2.25;;;;;;;10.31;52.58;94972.03;4181326;28;20348;-70
2024/02/04 08:50:54;;;;;;;9.82;3.60;;;;;;;10.41;52.27;94968.34;4186853;28;20090;-70
2024/02/04 08:52:56;;;;;;;3.13;2.20;;;;;;;10.42;52.08;94992.75;4181722;28;20599;-71
2024/02/04 08:54:59;;;;;;;4.78;2.95;;;;;;;10.16;52.82;94996.06;4183278;28;20045;-71
2024/02/04 08:57:02;;;;;;;7.35;3.15;;;;;;;10.12;53.49;94986.88;4142586;28;20053;-69
2024/02/04 08:59:05;;;;;;;5.78;2.45;;;;;;;10.10;53.47;94986.19;4184961;28;20044;-70
2024/02/04 09:01:07;;;;;;;;;;;;;;;10.03;53.64;94982.53;4175557;28;20443;-73
2024/02/04 09:03:09;;;;;;;6.75;2.10;;;;;;;9.98;53.26;94980.38;4171410;28;20179;-72
2024/02/04 09:05:11;;;;;;;3.88;2.22;;;;;;;10.00;53.89;94985.44;4179770;28;20135;-72
2024/02/04 09:07:13;;;;;;;6.80;2.20;;;;;;;9.94;53.78;94988.66;4180842;28;20044;-73
2024/02/04 09:09:14;;;;;;;5.25;2.28;;;;;;;9.99;53.69;94999.50;4177382;28;20094;-70
2024/02/04 09:11:18;;;;;;;4.32;2.28;;;;;;;9.92;53.54;95003.69;4158158;28;20104;-71
2024/02/04 09:13:20;;;;;;;;;;;;;;;9.95;53.44;95003.38;4175810;28;20289;-70
2024/02/04 09:15:22;;;;;;;4.88;2.15;;;;;;;9.87;53.96;94991.03;4154573;28;19961;-70
2024/02/04 09:17:24;;;;;;;3.67;2.58;;;;;;;9.91;53.98;95004.66;4163347;28;20330;-72
2024/02/04 09:19:26;;;;;;;6.45;2.30;;;;;;;9.89;53.98;95020.47;4177450;28;20118;-72
2024/02/04 09:21:28;;;;;;;3.70;2.22;;;;;;;9.95;53.76;95026.94;4161184;28;20092;-70
2024/02/04 09:23:30;;;;;;;7.03;2.42;;;;;;;9.94;54.26;95009.59;4163514;28;20088;-69
2024/02/04 09:25:32;;;;;;;4.05;2.10;;;;;;;9.93;54.55;95015.78;4177934;28;20048;-73
2024/02/04 09:27:34;;;;;;;4.72;2.33;;;;;;;9.79;54.65;95028.41;4162385;28;20314;-70
2024/02/04 09:29:36;;;;;;;4.15;2.30;;;;;;;9.86;54.61;95031.25;4159848;28;20108;-71
2024/02/04 09:31:38;;;;;;;4.95;2.42;;;;;;;9.96;54.14;95032.03;4174670;28;20041;-71
2024/02/04 09:33:40;;;;;;;7.32;2.58;;;;;;;9.97;54.77;95036.28;4184457;28;20048;-69
2024/02/04 09:35:43;;;;;;;4.47;2.50;;;;;;;10.04;54.25;95036.50;4171672;28;20761;-69
2024/02/04 09:37:46;;;;;;;4.67;2.63;;;;;;;10.13;54.40;95033.03;4167130;28;20524;-71
2024/02/04 09:39:48;;;;;;;6.47;2.20;;;;;;;10.20;54.71;95023.59;4162129;28;20305;-72
2024/02/04 09:41:50;;;;;;;6.95;2.25;;;;;;;10.31;54.24;95029.63;4169732;28;20060;-70
2024/02/04 09:43:52;;;;;;;3.88;2.58;;;;;;;10.43;53.90;95026.66;4191234;28;20052;-72